Data for 12/15/2010

Time Sea-Level Adjusted Pressure Absolute Pressure Temperature Relative Humidity Dew Point   
(mb) (inHg) (mb) (inHg) (C) (F) (%) (C) (F)
00:05 1007 29.74 836 24.69 -1 30.1 66 -6.6 20.2
00:10 1007 29.74 836 24.69 -1 30.1 68 -6.1 21
00:15 1007 29.74 836 24.69 -1.3 29.7 70 -6.1 21.1
00:20 1007 29.74 836 24.69 -1.4 29.4 70 -6.2 20.8
00:25 1007 29.74 836 24.69 -1.8 28.7 72 -6.3 20.6
00:30 1007 29.74 836 24.69 -2 28.4 68 -7.2 19
00:35 1007 29.74 836 24.69 -1.9 28.6 67 -7.1 19.2
00:40 1007 29.74 836 24.69 -1.7 28.9 67 -7.1 19.2
00:45 1007 29.74 836 24.69 -1.7 29 65 -7.3 18.9
00:50 1007 29.74 836 24.69 -1.5 29.3 63 -7.6 18.4
00:55 1007 29.74 836 24.69 -1.5 29.4 63 -7.5 18.4
01:00 1007 29.74 836 24.69 -1.6 29.2 65 -7.3 18.9
01:05 1007 29.74 836 24.69 -1.9 28.5 68 -7 19.4
01:10 1007 29.74 836 24.69 -2.4 27.6 72 -6.8 19.8
01:15 1007 29.74 836 24.69 -2.8 27 75 -6.6 20.2
01:20 1007 29.74 836 24.69 -2.9 26.7 77 -6.4 20.5
01:25 1007 29.74 836 24.69 -3 26.6 78 -6.3 20.7
01:30 1007 29.74 836 24.69 -3 26.6 77 -6.5 20.3
01:35 1007 29.74 836 24.69 -3 26.7 75 -6.8 19.8
01:40 1007 29.74 836 24.69 -3 26.7 77 -6.4 20.4
01:45 1007 29.74 836 24.69 -3 26.6 73 -7.1 19.2
01:50 1007 29.74 836 24.69 -2.9 26.8 70 -7.6 18.3
01:55 1007 29.74 836 24.69 -2.6 27.4 69 -7.6 18.4
02:00 1007 29.74 836 24.69 -2.5 27.6 69 -7.3 18.9
02:05 1007 29.74 836 24.69 -2.4 27.8 69 -7.3 18.9
02:10 1007 29.74 836 24.69 -2.3 27.8 68 -7.4 18.7
02:15 1007 29.74 836 24.69 -2.4 27.7 69 -7.2 19
02:20 1007 29.74 836 24.69 -2.5 27.5 70 -7.2 19
02:25 1007 29.74 836 24.69 -2.6 27.3 71 -7.1 19.2
02:30 1007 29.74 836 24.69 -2.9 26.8 74 -6.9 19.5
02:35 1007 29.74 836 24.69 -3 26.6 74 -6.9 19.5
02:40 1007 29.74 836 24.69 -3 26.6 75 -6.8 19.7
02:45 1007 29.74 836 24.69 -3.1 26.4 76 -6.7 19.9
02:50 1007 29.74 836 24.69 -3.3 26 76 -6.9 19.5
02:55 1007 29.74 836 24.69 -3.8 25.2 80 -6.8 19.8
03:00 1007 29.74 837 24.72 -4.2 24.4 80 -7.2 19.1
03:05 1007 29.74 836 24.69 -4.5 23.8 81 -7.4 18.7
03:10 1007 29.74 836 24.69 -4.6 23.6 78 -7.9 17.7
03:15 1007 29.74 837 24.72 -4.4 24.1 76 -7.9 17.8
03:20 1007 29.74 836 24.69 -4.5 24 78 -7.8 18
03:25 1007 29.74 837 24.72 -4.5 23.9 78 -7.8 17.9
03:30 1007 29.74 837 24.72 -4.7 23.6 77 -8.1 17.4
03:35 1007 29.74 837 24.72 -4.7 23.6 77 -8.2 17.3
03:40 1007 29.74 837 24.72 -4.6 23.7 76 -8.2 17.3
03:45 1007 29.74 837 24.72 -4.7 23.6 76 -8.2 17.2
03:50 1007 29.74 837 24.72 -4.7 23.5 76 -8.3 17.1
03:55 1007 29.74 836 24.69 -4.7 23.6 76 -8.3 17.1
04:00 1007 29.74 836 24.69 -4.8 23.3 76 -8.4 16.8
04:05 1007 29.74 836 24.69 -5.1 22.8 77 -8.5 16.8
04:10 1007 29.74 836 24.69 -5.1 22.8 77 -8.6 16.5
04:15 1007 29.74 836 24.69 -5 22.9 75 -8.8 16.2
04:20 1007 29.74 836 24.69 -5.1 22.8 77 -8.5 16.6
04:25 1007 29.74 836 24.69 -5.5 22.2 79 -8.6 16.6
04:30 1007 29.74 836 24.69 -5.5 22.1 77 -8.9 16
04:35 1007 29.74 837 24.72 -5.2 22.6 74 -9.1 15.7
04:40 1007 29.74 837 24.72 -5 23.1 73 -9.1 15.6
04:45 1007 29.74 837 24.72 -5 23.1 72 -9.2 15.4
04:50 1007 29.74 837 24.72 -4.9 23.2 72 -9.2 15.4
04:55 1008 29.77 837 24.72 -5 23 73 -9.2 15.4
05:00 1008 29.77 837 24.72 -5.1 22.8 72 -9.3 15.2
05:05 1008 29.77 837 24.72 -5 23 71 -9.5 14.9
05:10 1008 29.77 837 24.72 -4.9 23.1 71 -9.4 15.1
05:15 1007 29.74 837 24.72 -4.8 23.4 70 -9.5 15
05:20 1007 29.74 837 24.72 -4.8 23.3 69 -9.8 14.4
05:25 1008 29.77 837 24.72 -5 22.9 65 -10.6 12.9
05:30 1008 29.77 837 24.72 -5.1 22.9 62 -11.2 11.8
05:35 1008 29.77 837 24.72 -5 23 56 -12.4 9.6
05:40 1008 29.77 837 24.72 -4.7 23.6 59 -11.5 11.2
05:45 1008 29.77 837 24.72 -4.8 23.3 59 -11.6 11.1
05:50 1008 29.77 837 24.72 -4.8 23.3 62 -11 12.2
05:55 1008 29.77 837 24.72 -4.7 23.5 57 -12 10.5
06:00 1008 29.77 837 24.72 -4.5 23.8 60 -11.1 12
06:05 1008 29.77 837 24.72 -4.9 23.1 57 -12.1 10.2
06:10 1008 29.77 837 24.72 -4.9 23.2 54 -12.8 9
06:15 1008 29.77 837 24.72 -4.6 23.7 53 -12.7 9.1
06:20 1008 29.77 837 24.72 -4.1 24.6 52 -12.5 9.4
06:25 1008 29.77 837 24.72 -4 24.8 52 -12.4 9.7
06:30 1008 29.77 837 24.72 -4.2 24.4 52 -12.7 9.1
06:35 1008 29.77 837 24.72 -4.5 23.9 52 -12.9 8.7
06:40 1008 29.77 837 24.72 -4.3 24.2 52 -12.8 8.9
06:45 1008 29.77 837 24.72 -4 24.8 52 -12.6 9.3
06:50 1008 29.77 837 24.72 -4.4 24 53 -12.7 9.1
06:55 1008 29.77 837 24.72 -4.4 24.1 53 -12.5 9.4
07:00 1008 29.77 837 24.72 -4.4 24 53 -12.6 9.4
07:05 1008 29.77 838 24.75 -4.2 24.4 54 -12.3 9.9
07:10 1008 29.77 838 24.75 -4 24.9 53 -12.1 10.1
07:15 1008 29.77 838 24.75 -3.5 25.6 50 -12.6 9.4
07:20 1008 29.77 838 24.75 -3.1 26.4 50 -12.2 10.1
07:25 1009 29.8 838 24.75 -3 26.6 50 -12 10.4
07:30 1009 29.8 838 24.75 -3 26.5 48 -12.5 9.5
07:35 1009 29.8 838 24.75 -3.2 26.3 49 -12.4 9.7
07:40 1009 29.8 838 24.75 -3.6 25.5 51 -12.4 9.7
07:45 1009 29.8 838 24.75 -4.3 24.2 52 -12.8 8.9
07:50 1009 29.8 838 24.75 -4.8 23.3 53 -12.9 8.7
07:55 1009 29.8 838 24.75 -5.3 22.4 56 -12.9 8.8
08:00 1009 29.8 838 24.75 -5.7 21.8 57 -13 8.6
08:05 1009 29.8 838 24.75 -5.1 22.8 54 -13.2 8.3
08:10 1009 29.8 838 24.75 -4.2 24.4 52 -12.7 9.1
08:15 1009 29.8 838 24.75 -3.8 25.1 51 -12.4 9.6
08:20 1009 29.8 838 24.75 -3.5 25.6 51 -12.4 9.7
08:25 1009 29.8 838 24.75 -3.3 26.1 49 -12.5 9.5
08:30 1009 29.8 838 24.75 -3.2 26.3 50 -12.2 10
08:35 1009 29.8 838 24.75 -3.1 26.5 48 -12.5 9.5
08:40 1009 29.8 838 24.75 -3.1 26.4 48 -12.6 9.2
08:45 1009 29.8 838 24.75 -3.2 26.3 49 -12.5 9.5
08:50 1009 29.8 839 24.78 -3.2 26.2 48 -12.7 9.2
08:55 1009 29.8 839 24.78 -3.2 26.2 49 -12.5 9.5
09:00 1010 29.83 839 24.78 -3.3 26.1 49 -12.6 9.3
09:05 1010 29.83 839 24.78 -3.3 26.1 50 -12.4 9.7
09:10 1010 29.83 839 24.78 -3.3 26.1 48 -12.8 9
09:15 1010 29.83 839 24.78 -3.2 26.3 49 -12.3 9.8
09:20 1010 29.83 839 24.78 -3.1 26.4 48 -12.6 9.4
09:25 1010 29.83 839 24.78 -3.1 26.5 49 -12.4 9.7
09:30 1010 29.83 839 24.78 -3 26.7 48 -12.4 9.6
09:35 1010 29.83 839 24.78 -2.7 27.1 46 -12.7 9.1
09:40 1010 29.83 839 24.78 -2.5 27.4 47 -12.4 9.6
09:45 1010 29.83 839 24.78 -2.1 28.2 47 -12 10.4
09:50 1010 29.83 839 24.78 -2 28.4 47 -11.8 10.7
09:55 1010 29.83 839 24.78 -1.9 28.6 47 -11.9 10.6
10:00 1010 29.83 839 24.78 -2 28.4 47 -11.9 10.5
10:05 1010 29.83 840 24.81 -2.1 28.2 48 -11.7 10.9
10:10 1010 29.83 840 24.81 -2.2 28.1 48 -11.7 10.9
10:15 1010 29.83 840 24.81 -2.1 28.2 49 -11.5 11.4
10:20 1010 29.83 840 24.81 -2.2 28.1 49 -11.5 11.3
10:25 1010 29.83 840 24.81 -2.2 28 48 -11.8 10.7
10:30 1011 29.85 840 24.81 -2.1 28.1 49 -11.4 11.4
10:35 1011 29.85 840 24.81 -2.1 28.2 49 -11.4 11.4
10:40 1011 29.85 840 24.81 -1.9 28.6 48 -11.6 11.1
10:45 1011 29.85 840 24.81 -1.9 28.7 48 -11.4 11.5
10:50 1011 29.85 840 24.81 -1.6 29 47 -11.4 11.4
10:55 1011 29.85 840 24.81 -1.5 29.3 48 -11.3 11.7
11:00 1011 29.85 840 24.81 -1 30.2 46 -11.3 11.6
11:05 1011 29.85 840 24.81 -0.7 30.7 43 -11.8 10.8
11:10 1011 29.85 840 24.81 -0.8 30.6 46 -11.1 12.1
11:15 1011 29.85 840 24.81 -1.1 30 47 -11 12.2
11:20 1011 29.85 840 24.81 -1.1 30 46 -11.4 11.5
11:25 1011 29.85 840 24.81 -0.6 30.9 46 -11 12.3
11:30 1011 29.85 840 24.81 0.5 32.9 43 -10.7 12.7
11:35 1011 29.85 840 24.81 0.2 32.4 41 -11.4 11.4
11:40 1011 29.85 840 24.81 -0.3 31.5 44 -11.1 12
11:45 1011 29.85 840 24.81 -0 32 43 -11.2 11.8
11:50 1011 29.85 840 24.81 -0.2 31.6 46 -10.6 12.9
11:55 1011 29.85 840 24.81 -0.7 30.8 46 -11 12.3
12:00 1011 29.85 840 24.81 -0.7 30.7 43 -11.8 10.8
12:05 1011 29.85 840 24.81 -0.5 31.1 42 -11.8 10.8
12:10 1011 29.85 840 24.81 -0.2 31.6 43 -11.3 11.6
12:15 1011 29.85 840 24.81 0.1 32.2 42 -11.4 11.5
12:20 1011 29.85 840 24.81 0.2 32.4 44 -10.8 12.6
12:25 1011 29.85 840 24.81 0.2 32.4 43 -10.8 12.5
12:30 1011 29.85 840 24.81 0.1 32.2 45 -10.5 13.1
12:35 1011 29.85 840 24.81 0.1 32.2 45 -10.4 13.3
12:40 1011 29.85 840 24.81 0.3 32.5 44 -10.7 12.8
12:45 1011 29.85 840 24.81 0.2 32.3 45 -10.4 13.2
12:50 1011 29.85 840 24.81 -0.1 31.9 45 -10.7 12.7
12:55 1011 29.85 840 24.81 -0.1 31.9 46 -10.4 13.2
13:00 1011 29.85 840 24.81 0.3 32.6 42 -11 12.1
13:05 1011 29.85 840 24.81 0.7 33.2 43 -10.6 12.9
13:10 1011 29.85 840 24.81 1.1 34.1 42 -10.3 13.5
13:15 1011 29.85 840 24.81 1.7 35.1 41 -10.3 13.5
13:20 1011 29.85 840 24.81 2.1 35.9 37 -11 12.2
13:25 1011 29.85 840 24.81 2.3 36.2 38 -10.5 13.1
13:30 1011 29.85 840 24.81 2.5 36.4 35 -11.4 11.5
13:35 1011 29.85 840 24.81 2.4 36.3 36 -11.2 11.8
13:40 1011 29.85 840 24.81 2.7 36.8 34 -11.7 10.9
13:45 1011 29.85 840 24.81 2.6 36.6 34 -11.8 10.7
13:50 1011 29.85 840 24.81 2.7 36.8 34 -11.6 11
13:55 1011 29.85 840 24.81 2.9 37.3 33 -12 10.4
14:00 1011 29.85 840 24.81 2.6 36.7 31 -12.7 9.1
14:05 1011 29.85 840 24.81 1.1 34.1 34 -13.1 8.5
14:10 1011 29.85 840 24.81 0.5 32.9 38 -12.2 10
14:15 1011 29.85 840 24.81 0.4 32.7 35 -13.2 8.2
14:20 1011 29.85 840 24.81 0.7 33.3 34 -13.5 7.7
14:25 1011 29.85 840 24.81 0.8 33.5 34 -13.4 7.8
14:30 1011 29.85 840 24.81 1.1 34 35 -12.7 9.2
14:35 1011 29.85 841 24.83 1.9 35.4 31 -13.7 7.3
14:40 1011 29.85 841 24.83 2.2 35.9 31 -13.4 7.9
14:45 1011 29.85 841 24.83 1.6 34.9 35 -12.2 10
14:50 1011 29.85 841 24.83 1.2 34.1 37 -12.1 10.3
14:55 1012 29.88 841 24.83 0.9 33.6 36 -12.7 9.1
15:00 1012 29.88 841 24.83 0.4 32.7 39 -12.1 10.2
15:05 1012 29.88 841 24.83 0.1 32.2 39 -12.3 9.9
15:10 1012 29.88 841 24.83 -0.3 31.5 39 -12.6 9.4
15:15 1012 29.88 841 24.83 -0.4 31.3 39 -12.7 9.1
15:20 1012 29.88 841 24.83 -0.4 31.2 42 -11.9 10.6
15:25 1012 29.88 841 24.83 -0.6 30.9 41 -12.5 9.6
15:30 1012 29.88 841 24.83 -0.9 30.4 41 -12.5 9.4
15:35 1012 29.88 841 24.83 -0.9 30.3 41 -12.5 9.5
15:40 1012 29.88 841 24.83 -0.8 30.5 42 -12.3 9.9
15:45 1012 29.88 841 24.83 -0.8 30.5 43 -12 10.4
15:50 1012 29.88 841 24.83 -0.9 30.4 42 -12.3 9.9
15:55 1012 29.88 842 24.86 -0.9 30.4 43 -12 10.5
16:00 1012 29.88 842 24.86 -0.9 30.4 44 -11.6 11.1
16:05 1012 29.88 842 24.86 -0.9 30.3 44 -11.8 10.8
16:10 1012 29.88 842 24.86 -1 30.2 42 -12.5 9.5
16:15 1013 29.91 842 24.86 -1 30.2 40 -12.9 8.8
16:20 1013 29.91 842 24.86 -1 30.1 43 -12.2 10
16:25 1013 29.91 842 24.86 -1.3 29.7 43 -12.2 10
16:30 1013 29.91 842 24.86 -1.4 29.4 44 -12.2 10
16:35 1013 29.91 842 24.86 -1.4 29.4 41 -13.1 8.4
16:40 1013 29.91 842 24.86 -1.4 29.5 41 -13 8.6
16:45 1013 29.91 842 24.86 -1.4 29.5 43 -12.5 9.5
16:50 1013 29.91 842 24.86 -1.5 29.3 44 -12.4 9.7
16:55 1013 29.91 842 24.86 -1.6 29.1 45 -12 10.5
17:00 1013 29.91 842 24.86 -1.7 29 43 -12.6 9.3
17:05 1013 29.91 842 24.86 -1.6 29 44 -12.4 9.7
17:10 1013 29.91 842 24.86 -1.7 29 45 -12 10.4
17:15 1013 29.91 842 24.86 -1.8 28.7 45 -12.2 10
17:20 1013 29.91 842 24.86 -1.9 28.5 45 -12.5 9.6
17:25 1013 29.91 842 24.86 -1.9 28.5 44 -12.7 9.2
17:30 1013 29.91 842 24.86 -1.9 28.6 44 -12.6 9.4
17:35 1013 29.91 842 24.86 -2 28.4 45 -12.4 9.7
17:40 1013 29.91 843 24.89 -2 28.5 45 -12.5 9.6
17:45 1013 29.91 842 24.86 -2 28.4 47 -12 10.4
17:50 1013 29.91 842 24.86 -2 28.5 45 -12.3 9.8
17:55 1013 29.91 842 24.86 -1.9 28.6 45 -12.2 10
18:00 1013 29.91 843 24.89 -2 28.4 47 -12 10.5
18:05 1013 29.91 843 24.89 -1.9 28.5 46 -12.1 10.2
18:10 1013 29.91 843 24.89 -2 28.4 45 -12.5 9.5
18:15 1013 29.91 842 24.86 -2 28.4 45 -12.4 9.8
18:20 1013 29.91 843 24.89 -2 28.4 45 -12.4 9.7
18:25 1013 29.91 843 24.89 -2 28.5 47 -12 10.4
18:30 1013 29.91 843 24.89 -2.1 28.2 44 -12.7 9.2
18:35 1013 29.91 843 24.89 -2.2 28.1 44 -13 8.6
18:40 1013 29.91 843 24.89 -2.2 28 44 -12.9 8.9
18:45 1013 29.91 843 24.89 -2.4 27.6 44 -13.1 8.4
18:50 1013 29.91 843 24.89 -2.5 27.4 43 -13.4 7.8
18:55 1013 29.91 843 24.89 -2.6 27.3 46 -12.7 9.1
19:00 1014 29.94 843 24.89 -2.8 26.9 45 -13.2 8.2
19:05 1014 29.94 843 24.89 -3 26.7 46 -12.9 8.7
19:10 1014 29.94 843 24.89 -2.9 26.7 46 -13 8.7
19:15 1014 29.94 843 24.89 -3 26.6 46 -13 8.5
19:20 1014 29.94 843 24.89 -3.2 26.3 46 -13.1 8.4
19:25 1014 29.94 843 24.89 -3.3 26.1 46 -13.4 7.9
19:30 1014 29.94 843 24.89 -3.5 25.6 47 -13.3 8
19:35 1014 29.94 843 24.89 -3.8 25.2 46 -13.9 7
19:40 1014 29.94 843 24.89 -3.2 26.2 44 -13.9 7
19:45 1014 29.94 843 24.89 -3.1 26.5 43 -14 6.8
19:50 1014 29.94 843 24.89 -3 26.6 43 -13.8 7.1
19:55 1014 29.94 843 24.89 -3.1 26.5 45 -13.4 7.9
20:00 1014 29.94 843 24.89 -3 26.6 44 -13.5 7.7
20:05 1014 29.94 843 24.89 -3 26.6 46 -13.1 8.4
20:10 1014 29.94 843 24.89 -3.1 26.3 47 -12.9 8.7
20:15 1014 29.94 843 24.89 -3.4 25.9 48 -12.9 8.7
20:20 1014 29.94 844 24.92 -3.5 25.7 49 -12.7 9.2
20:25 1014 29.94 844 24.92 -3.5 25.7 51 -12.4 9.7
20:30 1014 29.94 844 24.92 -3.5 25.8 50 -12.5 9.4
20:35 1014 29.94 844 24.92 -3.4 25.9 50 -12.3 9.8
20:40 1014 29.94 844 24.92 -3.3 26.1 51 -12.2 10.1
20:45 1015 29.97 844 24.92 -3.2 26.2 50 -12.1 10.2
20:50 1015 29.97 844 24.92 -3.1 26.4 51 -11.8 10.7
20:55 1015 29.97 844 24.92 -3.1 26.4 51 -11.9 10.5
21:00 1015 29.97 844 24.92 -3.1 26.4 51 -11.8 10.8
21:05 1015 29.97 844 24.92 -3.2 26.3 50 -12.1 10.1
21:10 1015 29.97 844 24.92 -3.3 26.1 52 -11.7 11
21:15 1015 29.97 844 24.92 -3.4 25.8 52 -11.8 10.7
21:20 1015 29.97 844 24.92 -3.5 25.7 52 -12 10.4
21:25 1015 29.97 844 24.92 -3.6 25.6 52 -12.1 10.2
21:30 1015 29.97 844 24.92 -3.6 25.5 53 -12 10.5
21:35 1015 29.97 844 24.92 -3.7 25.3 52 -12.3 9.9
21:40 1015 29.97 844 24.92 -3.7 25.3 53 -12.1 10.2
21:45 1015 29.97 844 24.92 -3.9 25 52 -12.2 10
21:50 1015 29.97 844 24.92 -4 24.9 53 -12.2 10.1
21:55 1015 29.97 844 24.92 -4 24.8 52 -12.4 9.7
22:00 1015 29.97 844 24.92 -4.1 24.6 53 -12.3 9.9
22:05 1015 29.97 844 24.92 -4.2 24.5 53 -12.4 9.6
22:10 1015 29.97 844 24.92 -4.5 24 54 -12.3 9.8
22:15 1015 29.97 844 24.92 -4.7 23.6 55 -12.5 9.6
22:20 1015 29.97 844 24.92 -4.7 23.5 54 -12.7 9.2
22:25 1015 29.97 844 24.92 -4.7 23.6 54 -12.7 9.1
22:30 1015 29.97 844 24.92 -4.8 23.4 53 -12.9 8.8
22:35 1015 29.97 844 24.92 -4.8 23.4 53 -13 8.7
22:40 1014 29.94 844 24.92 -4.8 23.3 53 -13 8.6
22:45 1015 29.97 844 24.92 -4.8 23.4 53 -12.9 8.8
22:50 1015 29.97 844 24.92 -4.8 23.4 54 -12.9 8.8
22:55 1015 29.97 844 24.92 -4.9 23.3 54 -12.8 8.9
23:00 1015 29.97 844 24.92 -5 23.1 53 -13.1 8.4
23:05 1015 29.97 844 24.92 -4.9 23.2 52 -13.3 8.1
23:10 1015 29.97 844 24.92 -4.9 23.1 54 -13 8.7
23:15 1015 29.97 844 24.92 -5.2 22.7 53 -13.4 7.9
23:20 1015 29.97 844 24.92 -5.4 22.2 55 -13.1 8.5
23:25 1015 29.97 844 24.92 -6.2 20.8 57 -13.4 7.9
23:30 1015 29.97 844 24.92 -6.3 20.6 54 -14.1 6.6
23:35 1015 29.97 844 24.92 -6 21.2 55 -13.6 7.6
23:40 1015 29.97 844 24.92 -6.1 21 55 -13.7 7.3
23:45 1015 29.97 844 24.92 -6 21.1 56 -13.4 7.9
23:50 1015 29.97 844 24.92 -5.9 21.3 55 -13.7 7.3
23:55 1015 29.97 844 24.92 -5.6 22 53 -13.7 7.3
24:00 1015 29.97 844 24.92 -5.2 22.6 50 -14.1 6.7